Time;durP1;ratioP1;P1;durP2;ratioP2;P2;SDS_P1;SDS_P2;PMS_P1;PMS_P2;Temp;Humidity;BMP_temperature;BMP_pressure;BME280_temperature;BME280_humidity;BME280_pressure;Samples;Min_cycle;Max_cycle;Signal;HPM_P1;HPM_P2
2022/05/17 00:01:21;;;;;;;;;;;;;;;20.60;69.20;100958.19;7404939;19;1829;-40
2022/05/17 00:03:58;;;;;;;;;;;;;;;20.57;69.53;100931.59;7405670;19;1787;-40
2022/05/17 00:06:30;;;;;;;;;;;;;;;20.65;69.50;100952.38;7405205;19;1958;-40
2022/05/17 00:09:01;;;;;;;;;;;;;;;20.59;69.31;100937.69;7404598;19;1707;-40
2022/05/17 00:11:44;;;;;;;;;;;;;;;20.58;69.24;100933.25;7404963;19;1913;-40
2022/05/17 00:14:13;;;;;;;;;;;;;;;20.58;69.12;100935.09;7404417;19;1597;-40
2022/05/17 00:16:42;;;;;;;;;;;;;;;20.60;69.56;100936.69;7404692;19;1942;-40
2022/05/17 00:19:19;;;;;;;;;;;;;;;20.59;69.10;100939.50;7404881;19;1623;-40
2022/05/17 00:21:56;;;;;;;;;;;;;;;20.57;69.60;100931.59;7405649;19;1481;-40
2022/05/17 00:24:33;;;;;;;;;;;;;;;20.57;69.41;100920.84;7404308;19;1878;-40
2022/05/17 00:27:04;;;;;;;;;;;;;;;20.56;69.23;100921.81;7404220;19;1857;-40
2022/05/17 00:29:33;;;;;;;;;;;;;;;20.55;69.22;100922.81;7404230;19;1950;-40
2022/05/17 00:32:08;;;;;;;;;;;;;;;20.54;69.51;100910.34;7404562;19;1803;-40
2022/05/17 00:34:52;;;;;;;;;;;;;;;20.55;69.49;100928.19;7403848;19;1644;-40
2022/05/17 00:37:22;;;;;;;;;;;;;;;20.56;69.44;100924.50;7404199;19;1545;-40
2022/05/17 00:39:53;;;;;;;;;;;;;;;20.58;69.44;100914.44;7405237;19;1823;-39
2022/05/17 00:42:23;;;;;;;;;;;;;;;20.57;69.64;100917.28;7404445;19;2006;-39
2022/05/17 00:44:48;;;;;;;;;;;;;;;20.56;69.55;100905.69;7404029;19;1827;-39
2022/05/17 00:47:22;;;;;;;;;;;;;;;20.55;69.44;100922.81;7404122;19;1867;-40
2022/05/17 00:50:01;;;;;;;;;;;;;;;20.54;69.41;100899.63;7402677;19;1468;-40
2022/05/17 00:52:35;;;;;;;;;;;;;;;20.55;69.54;100917.44;7403460;19;1537;-40
2022/05/17 00:55:18;;;;;;;;;;;;;;;20.55;69.40;100909.38;7403997;19;1658;-40
2022/05/17 00:57:54;;;;;;;;;;;;;;;20.58;69.29;100916.31;7404509;19;1899;-40
2022/05/17 01:00:34;;;;;;;;;;;;;;;20.54;69.37;100915.72;7404168;19;1521;-39
2022/05/17 01:03:06;;;;;;;;;;;;;;;20.52;69.54;100912.34;7400120;19;1640;-39
2022/05/17 01:05:43;;;;;;;;;;;;;;;20.52;69.17;100896.22;7402205;19;1569;-40
2022/05/17 01:08:14;;;;;;;;;;;;;;;20.54;69.43;100907.66;7400816;19;1957;-40
2022/05/17 01:10:44;;;;;;;;;;;;;;;20.52;69.52;100904.28;7402448;19;1800;-40
2022/05/17 01:15:53;;;;;;;;;;;;;;;20.52;69.57;100906.97;7403308;19;1927;-40
2022/05/17 01:18:22;;;;;;;;;;;;;;;20.50;69.33;100902.72;7403948;19;1588;-39
2022/05/17 01:21:16;;;;;;;;;;;;;;;20.52;69.31;100898.06;7404995;19;1039;-39
2022/05/17 01:23:54;;;;;;;;;;;;;;;20.54;69.33;100904.97;7401780;19;1977;-39
2022/05/17 01:26:35;;;;;;;;;;;;;;;20.54;69.04;100913.03;7401979;19;1952;-39
2022/05/17 01:29:05;;;;;;;;;;;;;;;20.50;69.32;100903.56;7402708;19;1714;-40
2022/05/17 01:31:43;;;;;;;;;;;;;;;20.53;69.33;100903.31;7401886;19;1532;-39
2022/05/17 01:34:20;;;;;;;;;;;;;;;20.52;69.20;100901.59;7403316;19;1353;-40
2022/05/17 01:36:53;;;;;;;;;;;;;;;20.52;69.42;100898.06;7403440;19;1875;-39
2022/05/17 01:39:28;;;;;;;;;;;;;;;20.53;69.33;100908.69;7402419;19;1868;-40
2022/05/17 01:41:59;;;;;;;;;;;;;;;20.51;69.11;100894.50;7400922;19;1724;-40
2022/05/17 01:44:30;;;;;;;;;;;;;;;20.49;69.50;100885.75;7401567;19;1497;-40
2022/05/17 01:47:00;;;;;;;;;;;;;;;20.50;69.32;100892.00;7401240;19;1855;-40
2022/05/17 01:49:28;;;;;;;;;;;;;;;20.50;69.23;100892.00;7401583;19;1804;-40
2022/05/17 01:52:06;;;;;;;;;;;;;;;20.48;69.17;100889.44;7397491;19;1738;-40
2022/05/17 01:54:40;;;;;;;;;;;;;;;20.50;69.57;100884.78;7402290;19;1677;-40
2022/05/17 01:57:10;;;;;;;;;;;;;;;20.50;69.27;100894.69;7403361;19;1337;-40
2022/05/17 01:59:42;;;;;;;;;;;;;;;20.49;69.33;100880.38;7401541;19;1828;-40
2022/05/17 02:02:10;;;;;;;;;;;;;;;20.46;69.47;100880.66;7393675;19;3343;-63
2022/05/17 02:04:39;;;;;;;;;;;;;;;20.49;69.21;100884.91;7404697;19;1524;-62
2022/05/17 02:07:07;;;;;;;;;;;;;;;20.49;69.32;100901.88;7405231;19;1850;-62
2022/05/17 02:09:38;;;;;;;;;;;;;;;20.46;69.49;100888.72;7405173;19;1757;-61
2022/05/17 02:12:08;;;;;;;;;;;;;;;20.47;69.56;100893.09;7404398;19;1609;-63
2022/05/17 02:14:36;;;;;;;;;;;;;;;20.49;69.39;100901.03;7404609;19;1619;-63
2022/05/17 02:17:05;;;;;;;;;;;;;;;20.50;69.26;100892.81;7404487;19;1628;-64
2022/05/17 02:19:33;;;;;;;;;;;;;;;20.47;69.36;100879.66;7403821;19;1627;-61
2022/05/17 02:22:01;;;;;;;;;;;;;;;20.47;69.09;100895.78;7404467;19;1316;-61
2022/05/17 02:24:30;;;;;;;;;;;;;;;20.48;68.93;100888.59;7404511;19;1334;-63
2022/05/17 02:27:01;;;;;;;;;;;;;;;20.49;69.21;100884.91;7403651;19;1850;-62
2022/05/17 02:29:30;;;;;;;;;;;;;;;20.48;69.26;100899.34;7404293;19;1413;-63
2022/05/17 02:31:58;;;;;;;;;;;;;;;20.48;69.40;100900.19;7404326;19;1640;-64
2022/05/17 02:34:27;;;;;;;;;;;;;;;20.49;69.40;100901.88;7404447;19;1642;-61
2022/05/17 02:36:55;;;;;;;;;;;;;;;20.46;69.28;100897.63;7406187;19;1124;-64
2022/05/17 02:39:24;;;;;;;;;;;;;;;20.44;69.45;100896.09;7404005;19;1616;-62
2022/05/17 02:41:52;;;;;;;;;;;;;;;20.49;69.27;100907.25;7404063;19;1513;-64
2022/05/17 02:44:23;;;;;;;;;;;;;;;20.46;69.42;100907.53;7403141;19;1588;-61
2022/05/17 02:46:52;;;;;;;;;;;;;;;20.46;69.40;100908.38;7403648;19;1427;-64
2022/05/17 02:49:20;;;;;;;;;;;;;;;20.44;69.39;100893.41;7400284;19;1849;-61
2022/05/17 02:51:48;;;;;;;;;;;;;;;20.45;69.53;100900.44;7404895;19;1328;-61
2022/05/17 02:54:17;;;;;;;;;;;;;;;20.44;69.45;100914.88;7403754;19;1683;-64
2022/05/17 02:56:45;;;;;;;;;;;;;;;20.44;69.39;100909.53;7402927;19;1675;-60
2022/05/17 02:59:19;;;;;;;;;;;;;;;20.44;69.25;100922.94;7403895;19;1537;-64
2022/05/17 03:01:51;;;;;;;;;;;;;;;20.44;69.18;100926.47;7401171;19;1502;-63
2022/05/17 03:04:19;;;;;;;;;;;;;;;20.42;69.35;100900.75;7402789;19;1294;-63
2022/05/17 03:06:48;;;;;;;;;;;;;;;20.41;69.25;100909.78;7404079;19;1342;-66
2022/05/17 03:09:17;;;;;;;;;;;;;;;20.44;69.12;100925.63;7400595;19;1854;-62
2022/05/17 03:11:45;;;;;;;;;;;;;;;20.45;69.10;100900.44;7404899;19;1358;-63
2022/05/17 03:14:14;;;;;;;;;;;;;;;20.44;69.46;100909.53;7410234;19;1533;-64
2022/05/17 03:16:43;;;;;;;;;;;;;;;20.43;69.33;100908.69;7409325;19;1860;-63
2022/05/17 03:19:14;;;;;;;;;;;;;;;20.42;69.24;100924.94;7408671;19;1592;-61
2022/05/17 03:21:42;;;;;;;;;;;;;;;20.42;69.08;100914.19;7411404;19;1548;-64
2022/05/17 03:24:11;;;;;;;;;;;;;;;20.43;69.22;100906.00;7408949;19;1401;-64
2022/05/17 03:26:40;;;;;;;;;;;;;;;20.42;69.12;100895.38;7407622;19;1522;-61
2022/05/17 03:29:09;;;;;;;;;;;;;;;20.42;69.27;100906.97;7406032;19;1837;-62
2022/05/17 03:31:37;;;;;;;;;;;;;;;20.45;69.13;100911.19;7409605;19;1276;-61
2022/05/17 03:34:06;;;;;;;;;;;;;;;20.46;69.23;100912.91;7409441;19;1062;-63
2022/05/17 03:36:37;;;;;;;;;;;;;;;20.45;69.14;100916.56;7409924;19;1334;-64
2022/05/17 03:39:05;;;;;;;;;;;;;;;20.44;69.00;100929.16;7409961;19;1278;-61
2022/05/17 03:41:34;;;;;;;;;;;;;;;20.50;68.83;100913.47;7408455;19;1528;-61
2022/05/17 03:44:02;;;;;;;;;;;;;;;20.44;68.74;100915.72;7409629;19;1517;-63
2022/05/17 03:46:31;;;;;;;;;;;;;;;20.53;68.76;100903.31;7408622;19;1306;-61
2022/05/17 03:48:59;;;;;;;;;;;;;;;20.53;69.20;100916.75;7406033;19;1850;-64
2022/05/17 03:51:27;;;;;;;;;;;;;;;20.52;69.22;100917.72;7410232;19;1357;-62
2022/05/17 03:53:58;;;;;;;;;;;;;;;20.54;69.25;100926.47;7409813;19;1463;-61
2022/05/17 03:56:27;;;;;;;;;;;;;;;20.56;68.96;100924.50;7409452;19;1521;-63
2022/05/17 03:58:55;;;;;;;;;;;;;;;20.59;69.16;100923.38;7408552;19;1364;-61
2022/05/17 04:01:23;;;;;;;;;;;;;;;20.58;68.77;100924.38;7407048;19;1603;-64
2022/05/17 04:03:52;;;;;;;;;;;;;;;20.60;68.91;100899.06;7408574;19;1365;-63
2022/05/17 04:06:21;;;;;;;;;;;;;;;20.60;68.74;100912.50;7408565;19;1290;-63
2022/05/17 04:08:49;;;;;;;;;;;;;;;20.63;68.96;100914.91;7404687;19;1857;-63
2022/05/17 04:11:20;;;;;;;;;;;;;;;20.62;68.91;100918.59;7407292;19;1403;-62
2022/05/17 04:13:49;;;;;;;;;;;;;;;20.64;69.06;100919.28;7408006;19;1589;-63
2022/05/17 04:16:17;;;;;;;;;;;;;;;20.65;69.26;100899.50;7407471;19;1667;-61
2022/05/17 04:18:46;;;;;;;;;;;;;;;20.68;69.02;100921.69;7408770;19;1624;-62
2022/05/17 04:21:15;;;;;;;;;;;;;;;20.65;68.89;100918.31;7408365;19;1278;-61
2022/05/17 04:23:43;;;;;;;;;;;;;;;20.67;69.23;100904.72;7407647;19;1291;-63
2022/05/17 04:26:13;;;;;;;;;;;;;;;20.71;69.14;100918.72;7407721;19;1600;-61
2022/05/17 04:28:44;;;;;;;;;;;;;;;20.70;69.00;100903.59;7407211;19;1846;-63
2022/05/17 04:31:12;;;;;;;;;;;;;;;20.73;68.87;100922.09;7408309;19;1597;-61
2022/05/17 04:33:41;;;;;;;;;;;;;;;20.75;69.01;100914.75;7408211;19;1199;-61
2022/05/17 04:36:09;;;;;;;;;;;;;;;20.76;68.91;100909.25;7408050;19;1541;-62
2022/05/17 04:38:38;;;;;;;;;;;;;;;20.75;68.79;100910.25;7405557;19;1532;-63
2022/05/17 04:41:06;;;;;;;;;;;;;;;20.76;68.83;100909.25;7407154;19;1346;-63
2022/05/17 04:43:35;;;;;;;;;;;;;;;20.84;68.78;100921.97;7406522;19;1307;-63
2022/05/17 04:46:06;;;;;;;;;;;;;;;20.84;68.21;100922.78;7408522;19;1483;-63
2022/05/17 04:48:34;;;;;;;;;;;;;;;20.89;68.57;100925.06;7404050;19;1850;-64
2022/05/17 04:51:02;;;;;;;;;;;;;;;20.87;68.27;100913.63;7408288;19;1231;-63
2022/05/17 04:53:31;;;;;;;;;;;;;;;20.85;68.24;100919.13;7404437;19;1798;-62
2022/05/17 04:55:59;;;;;;;;;;;;;;;20.86;68.69;100917.28;7406011;19;1542;-61
2022/05/17 04:58:28;;;;;;;;;;;;;;;20.88;68.61;100917.16;7405380;19;1487;-63
2022/05/17 05:00:56;;;;;;;;;;;;;;;20.85;68.58;100912.91;7405790;19;1517;-63
2022/05/17 05:03:27;;;;;;;;;;;;;;;20.87;68.59;100905.56;7407225;19;1182;-61
2022/05/17 05:05:56;;;;;;;;;;;;;;;20.88;68.55;100923.38;7407736;19;1592;-61
2022/05/17 05:08:24;;;;;;;;;;;;;;;20.88;68.36;100912.63;7405141;19;1865;-63
2022/05/17 05:10:53;;;;;;;;;;;;;;;20.89;68.45;100897.31;7403521;19;1235;-60
2022/05/17 05:13:22;;;;;;;;;;;;;;;20.93;68.69;100893.34;7405235;19;1223;-63
2022/05/17 05:15:50;;;;;;;;;;;;;;;20.92;68.58;100895.19;7404817;19;1426;-63
2022/05/17 05:18:19;;;;;;;;;;;;;;;20.91;68.78;100879.22;7404583;19;1366;-63
2022/05/17 05:20:50;;;;;;;;;;;;;;;20.95;68.80;100912.88;7405020;19;1467;-63
2022/05/17 05:23:18;;;;;;;;;;;;;;;20.92;68.48;100915.88;7405253;19;1397;-61
2022/05/17 05:25:47;;;;;;;;;;;;;;;20.94;68.43;100911.19;7404828;19;1488;-63
2022/05/17 05:28:15;;;;;;;;;;;;;;;20.95;68.23;100913.75;7402969;19;1876;-61
2022/05/17 05:30:43;;;;;;;;;;;;;;;21.03;68.45;100904.97;7403816;19;1431;-63
2022/05/17 05:33:11;;;;;;;;;;;;;;;21.02;68.89;100890.66;7405739;19;1276;-62
2022/05/17 05:35:40;;;;;;;;;;;;;;;21.02;68.75;100903.25;7404030;19;1468;-60
2022/05/17 05:38:11;;;;;;;;;;;;;;;21.04;69.13;100907.47;7405317;19;1320;-63
2022/05/17 05:40:39;;;;;;;;;;;;;;;21.13;69.58;100912.97;7405863;19;1886;-68
2022/05/17 05:43:08;;;;;;;;;;;;;;;21.16;69.21;100920.75;7405234;19;1180;-70
2022/05/17 05:45:36;;;;;;;;;;;;;;;21.20;69.08;100914.09;7405059;19;1335;-63
2022/05/17 05:48:05;;;;;;;;;;;;;;;21.20;68.93;100922.16;7401777;19;1879;-63
2022/05/17 05:50:34;;;;;;;;;;;;;;;21.19;69.08;100932.06;7403334;19;1521;-67
2022/05/17 05:53:04;;;;;;;;;;;;;;;21.17;69.33;100927.81;7402460;19;1600;-65
2022/05/17 05:55:37;;;;;;;;;;;;;;;21.18;69.09;100918.78;7399265;19;1395;-61
2022/05/17 05:58:06;;;;;;;;;;;;;;;21.23;69.25;100938.84;7404577;19;1381;-63
2022/05/17 06:00:35;;;;;;;;;;;;;;;21.26;69.36;100941.25;7403158;19;1668;-62
2022/05/17 06:03:03;;;;;;;;;;;;;;;21.32;70.12;100923.66;7403907;19;1542;-64
2022/05/17 06:05:34;;;;;;;;;;;;;;;21.33;69.95;100925.38;7405298;19;1332;-64
2022/05/17 06:08:02;;;;;;;;;;;;;;;21.36;69.53;100900.84;7405714;19;1624;-61
2022/05/17 06:10:31;;;;;;;;;;;;;;;21.51;69.16;100919.25;7403871;19;1886;-63
2022/05/17 06:13:02;;;;;;;;;;;;;;;21.43;69.21;100917.31;7405077;19;1545;-63
2022/05/17 06:15:31;;;;;;;;;;;;;;;21.39;69.40;100913.19;7405519;19;1592;-61
2022/05/17 06:18:03;;;;;;;;;;;;;;;21.41;69.29;100920.09;7404843;19;1558;-66
2022/05/17 06:20:31;;;;;;;;;;;;;;;21.44;69.21;100914.44;7403878;19;1188;-61
2022/05/17 06:22:59;;;;;;;;;;;;;;;21.38;69.39;100920.38;7405057;19;1599;-61
2022/05/17 06:25:28;;;;;;;;;;;;;;;21.40;69.53;100913.03;7404580;19;1600;-65
2022/05/17 06:27:56;;;;;;;;;;;;;;;21.47;69.26;100915.16;7404756;19;1289;-63
2022/05/17 06:30:27;;;;;;;;;;;;;;;21.41;69.16;100914.72;7400131;19;1864;-60
2022/05/17 06:32:56;;;;;;;;;;;;;;;21.39;69.66;100918.56;7403583;19;1563;-63
2022/05/17 06:35:24;;;;;;;;;;;;;;;21.37;69.44;100917.88;7404958;19;1524;-62
2022/05/17 06:37:53;;;;;;;;;;;;;;;21.39;69.25;100924.78;7404203;19;1616;-63
2022/05/17 06:40:21;;;;;;;;;;;;;;;21.43;69.01;100923.53;7405779;19;1537;-62
2022/05/17 06:42:49;;;;;;;;;;;;;;;21.40;69.18;100934.53;7404880;19;1537;-63
2022/05/17 06:45:18;;;;;;;;;;;;;;;21.43;69.23;100912.78;7403635;19;1758;-62
2022/05/17 06:47:49;;;;;;;;;;;;;;;21.46;68.98;100917.00;7408701;19;1448;-62
2022/05/17 06:50:17;;;;;;;;;;;;;;;21.41;68.97;100909.34;7409899;19;1857;-61
2022/05/17 06:52:46;;;;;;;;;;;;;;;21.37;69.04;100902.56;7411008;19;1620;-61
2022/05/17 06:55:15;;;;;;;;;;;;;;;21.50;68.34;100910.31;7410328;19;1529;-63
2022/05/17 06:57:43;;;;;;;;;;;;;;;21.47;68.27;100905.25;7410935;19;1723;-63
2022/05/17 07:00:13;;;;;;;;;;;;;;;21.40;68.55;100886.13;7411066;19;1639;-62
2022/05/17 07:02:42;;;;;;;;;;;;;;;21.42;68.26;100897.56;7408009;19;1664;-63
2022/05/17 07:05:13;;;;;;;;;;;;;;;21.43;68.45;100893.94;7410766;19;1603;-63
2022/05/17 07:07:41;;;;;;;;;;;;;;;21.39;68.64;100897.88;7411624;19;983;-63
2022/05/17 07:15:32;;;;;;;;;;;;;;;21.42;68.48;100911.03;7412316;19;1323;-63
2022/05/17 07:18:02;;;;;;;;;;;;;;;21.36;68.67;100894.63;7410790;19;1525;-63
2022/05/17 07:20:32;;;;;;;;;;;;;;;21.38;68.37;100890.78;7410476;19;1762;-62
2022/05/17 07:23:03;;;;;;;;;;;;;;;21.39;68.88;100905.97;7407776;19;1708;-61
2022/05/17 07:25:31;;;;;;;;;;;;;;;21.35;68.75;100891.09;7410715;19;1525;-63
2022/05/17 07:28:00;;;;;;;;;;;;;;;21.38;68.75;100888.09;7410358;19;1493;-63
2022/05/17 07:30:28;;;;;;;;;;;;;;;21.37;68.58;100901.72;7408818;19;1852;-61
2022/05/17 07:32:57;;;;;;;;;;;;;;;21.34;68.58;100900.16;7410199;19;1672;-61
2022/05/17 07:35:26;;;;;;;;;;;;;;;21.36;68.58;100892.78;7409078;19;1542;-61
2022/05/17 07:37:57;;;;;;;;;;;;;;;21.37;68.48;100890.97;7409987;19;1536;-63
2022/05/17 07:40:25;;;;;;;;;;;;;;;21.35;68.67;100899.19;7411910;19;1019;-60
2022/05/17 07:42:54;;;;;;;;;;;;;;;21.33;68.37;100906.56;7410473;19;1537;-63
2022/05/17 07:45:23;;;;;;;;;;;;;;;21.36;68.74;100906.25;7409484;19;1452;-63
2022/05/17 07:47:51;;;;;;;;;;;;;;;21.38;68.49;100904.25;7409411;19;1687;-62
2022/05/17 07:50:20;;;;;;;;;;;;;;;21.36;68.37;100892.78;7407249;19;1861;-63
2022/05/17 07:52:48;;;;;;;;;;;;;;;21.41;68.68;100908.50;7409463;19;1525;-60
2022/05/17 07:55:19;;;;;;;;;;;;;;;21.42;68.47;100912.88;7410386;19;1614;-63
2022/05/17 07:57:48;;;;;;;;;;;;;;;21.39;68.34;100873.69;7406454;19;1627;-62
2022/05/17 08:00:17;;;;;;;;;;;;;;;21.44;68.58;100903.69;7409314;19;1616;-61
2022/05/17 08:02:45;;;;;;;;;;;;;;;21.43;68.29;100907.38;7405617;19;1502;-63
2022/05/17 08:05:13;;;;;;;;;;;;;;;21.34;68.69;100886.72;7409739;19;1557;-62
2022/05/17 08:07:42;;;;;;;;;;;;;;;21.40;68.73;100894.19;7409334;19;1621;-63
2022/05/17 08:10:11;;;;;;;;;;;;;;;21.41;68.73;100903.13;7407476;19;1846;-63
2022/05/17 08:12:42;;;;;;;;;;;;;;;21.40;68.62;100898.72;7408097;19;1676;-61
2022/05/17 08:15:11;;;;;;;;;;;;;;;21.41;68.64;100898.59;7409355;19;1766;-63
2022/05/17 08:17:39;;;;;;;;;;;;;;;21.40;68.69;100896.03;7408130;19;1715;-60
2022/05/17 08:20:09;;;;;;;;;;;;;;;21.39;68.76;100886.28;7407823;19;1453;-61
2022/05/17 08:22:39;;;;;;;;;;;;;;;21.39;68.54;100894.34;7408731;19;1482;-63
2022/05/17 08:27:54;;;;;;;;;;;;;;;21.42;68.46;100872.53;7408629;19;1620;-61
2022/05/17 08:30:23;;;;;;;;;;;;;;;21.41;68.68;100877.06;7407609;19;1850;-61
2022/05/17 08:35:37;;;;;;;;;;;;;;;21.42;68.67;100867.16;7407880;19;1407;-63
2022/05/17 08:38:06;;;;;;;;;;;;;;;21.41;68.58;100866.31;7408116;19;1410;-62
2022/05/17 08:40:37;;;;;;;;;;;;;;;21.40;68.70;100845.75;7407986;19;1464;-62
2022/05/17 08:43:15;;;;;;;;;;;;;;;21.44;68.31;100860.63;7408407;19;1337;-64
2022/05/17 08:45:58;;;;;;;;;;;;;;;21.48;68.59;100863.88;7407824;19;1667;-63
2022/05/17 08:48:32;;;;;;;;;;;;;;;21.53;68.26;100863.47;7407886;19;1484;-60
2022/05/17 08:51:01;;;;;;;;;;;;;;;21.51;68.46;100857.38;7406360;19;1863;-66
2022/05/17 08:53:29;;;;;;;;;;;;;;;21.50;68.30;100856.50;7406775;19;1624;-61
2022/05/17 08:55:59;;;;;;;;;;;;;;;21.47;68.77;100855.97;7405717;19;1518;-65
2022/05/17 08:58:30;;;;;;;;;;;;;;;21.53;68.68;100855.38;7407008;19;1456;-63
2022/05/17 09:01:01;;;;;;;;;;;;;;;21.56;68.77;100868.53;7406481;19;1411;-62
2022/05/17 09:03:48;;;;;;;;;;;;;;;21.51;68.99;100860.91;7405792;19;1353;-65
2022/05/17 09:06:20;;;;;;;;;;;;;;;21.56;69.14;100847.84;7406367;19;1443;-68
2022/05/17 09:08:53;;;;;;;;;;;;;;;21.56;68.89;100852.38;7405249;19;1437;-61
2022/05/17 09:11:23;;;;;;;;;;;;;;;21.51;69.18;100849.31;7405004;19;1851;-62
2022/05/17 09:14:00;;;;;;;;;;;;;;;21.49;69.38;100843.19;7406205;19;1611;-66
2022/05/17 09:16:29;;;;;;;;;;;;;;;21.50;69.17;100847.59;7406003;19;1477;-61
2022/05/17 09:18:58;;;;;;;;;;;;;;;21.61;68.89;100833.94;7405972;19;1608;-76
2022/05/17 09:21:29;;;;;;;;;;;;;;;21.65;68.97;100840.72;7407123;19;1591;-66
2022/05/17 09:24:00;;;;;;;;;;;;;;;21.65;69.13;100840.72;7404968;19;1620;-67
2022/05/17 09:26:30;;;;;;;;;;;;;;;21.56;69.32;100837.06;7407269;19;1397;-67
2022/05/17 09:29:02;;;;;;;;;;;;;;;21.55;69.34;100831.88;7407760;19;1620;-61
2022/05/17 09:31:33;;;;;;;;;;;;;;;21.61;69.20;100823.19;7406074;19;1841;-61
2022/05/17 09:34:03;;;;;;;;;;;;;;;21.58;69.07;100831.53;7404984;19;1357;-60
2022/05/17 09:36:43;;;;;;;;;;;;;;;21.65;69.08;100825.41;7406393;19;1403;-66
2022/05/17 09:39:11;;;;;;;;;;;;;;;21.65;69.41;100828.09;7405578;19;1541;-68
2022/05/17 09:41:42;;;;;;;;;;;;;;;21.67;69.63;100817.19;7406394;19;1628;-63
2022/05/17 09:44:15;;;;;;;;;;;;;;;21.57;70.16;100817.25;7405551;19;1636;-60
2022/05/17 09:46:45;;;;;;;;;;;;;;;21.52;70.71;100816.00;7405062;19;1734;-62
2022/05/17 09:54:50;;;;;;;;;;;;;;;21.44;70.55;100817.59;7404868;19;1182;-64
2022/05/17 09:57:21;;;;;;;;;;;;;;;21.39;70.26;100819.88;7404413;19;1600;-64
2022/05/17 09:59:53;;;;;;;;;;;;;;;21.44;70.22;100814.06;7403589;19;1459;-63
2022/05/17 10:02:37;;;;;;;;;;;;;;;21.44;70.24;100806.84;7395486;19;1333;-63
2022/05/17 10:05:14;;;;;;;;;;;;;;;21.41;70.48;100798.22;7399878;19;1281;-63
2022/05/17 10:07:43;;;;;;;;;;;;;;;21.38;69.92;100802.03;7400670;19;1607;-63
2022/05/17 10:10:11;;;;;;;;;;;;;;;21.36;69.93;100803.19;7398595;19;1853;-63
2022/05/17 10:12:40;;;;;;;;;;;;;;;21.38;70.12;100801.19;7400319;19;1629;-65
2022/05/17 10:15:13;;;;;;;;;;;;;;;21.35;70.44;100790.75;7398216;19;1414;-64
2022/05/17 10:17:44;;;;;;;;;;;;;;;21.34;70.17;100792.56;7398693;19;1345;-63
2022/05/17 10:20:15;;;;;;;;;;;;;;;21.33;70.30;100781.94;7401141;19;1427;-65
2022/05/17 10:22:47;;;;;;;;;;;;;;;21.39;69.86;100787.59;7408086;19;1533;-63
2022/05/17 10:25:23;;;;;;;;;;;;;;;21.34;70.00;100776.44;7408225;19;1289;-63
2022/05/17 10:27:53;;;;;;;;;;;;;;;21.38;70.18;100782.34;7408031;19;1444;-63
2022/05/17 10:30:28;;;;;;;;;;;;;;;21.32;70.72;100770.34;7406343;19;1864;-62
2022/05/17 10:33:00;;;;;;;;;;;;;;;21.34;70.39;100765.66;7405850;19;1648;-63
2022/05/17 10:35:33;;;;;;;;;;;;;;;21.32;70.20;100761.44;7407316;19;1262;-63
2022/05/17 10:38:04;;;;;;;;;;;;;;;21.31;70.32;100752.53;7406219;19;1668;-62
2022/05/17 10:40:33;;;;;;;;;;;;;;;21.32;70.18;100759.59;7406750;19;1282;-62
2022/05/17 10:43:02;;;;;;;;;;;;;;;21.32;70.37;100754.22;7406448;19;1444;-64
2022/05/17 10:45:35;;;;;;;;;;;;;;;21.30;70.53;100744.59;7406219;19;1436;-63
2022/05/17 10:48:13;;;;;;;;;;;;;;;21.32;70.17;100748.81;7406818;19;1742;-63
2022/05/17 10:50:48;;;;;;;;;;;;;;;21.31;70.09;100736.41;7405247;19;1862;-64
2022/05/17 10:53:21;;;;;;;;;;;;;;;21.32;70.42;100737.22;7406522;19;1598;-63
2022/05/17 10:56:06;;;;;;;;;;;;;;;21.33;70.36;100715.56;7405457;19;1451;-63
2022/05/17 10:58:43;;;;;;;;;;;;;;;21.30;70.48;100723.94;7406618;19;1485;-63
2022/05/17 11:01:16;;;;;;;;;;;;;;;21.33;70.29;100731.72;7404997;19;1430;-64
2022/05/17 11:03:58;;;;;;;;;;;;;;;21.33;70.14;100720.94;7404555;19;1246;-64
2022/05/17 11:06:29;;;;;;;;;;;;;;;21.32;70.60;100719.25;7406680;19;1322;-64
2022/05/17 11:09:01;;;;;;;;;;;;;;;21.31;70.63;100693.34;7406193;19;1279;-63
2022/05/17 11:11:44;;;;;;;;;;;;;;;21.32;70.93;100715.72;7402892;19;1871;-62
2022/05/17 11:14:15;;;;;;;;;;;;;;;21.31;70.66;100704.13;7403562;19;1651;-64
2022/05/17 11:16:52;;;;;;;;;;;;;;;21.32;70.66;100716.56;7405368;19;1650;-63
2022/05/17 11:19:23;;;;;;;;;;;;;;;21.33;70.69;100701.25;7405235;19;1731;-64
2022/05/17 11:21:55;;;;;;;;;;;;;;;21.30;70.61;100694.34;7406777;19;1521;-64
2022/05/17 11:24:29;;;;;;;;;;;;;;;21.32;70.47;100695.03;7404594;19;1620;-63
2022/05/17 11:27:15;;;;;;;;;;;;;;;21.31;70.38;100701.44;7405812;19;1615;-63
2022/05/17 11:29:50;;;;;;;;;;;;;;;21.38;70.25;100691.72;7404443;19;1378;-63
2022/05/17 11:32:25;;;;;;;;;;;;;;;21.39;70.13;100692.59;7403965;19;1263;-63
2022/05/17 11:34:55;;;;;;;;;;;;;;;21.49;70.21;100679.06;7406249;19;1287;-63
2022/05/17 11:37:38;;;;;;;;;;;;;;;21.40;70.31;100689.72;7410105;19;1619;-63
2022/05/17 11:40:08;;;;;;;;;;;;;;;21.38;70.21;100688.19;7407926;19;1651;-62
2022/05/17 11:43:40;;;;;;;;;;;;;;;21.43;70.22;100684.09;7409354;19;1287;-62
2022/05/17 11:45:44;;;;;;;;;;;;;;;21.41;70.48;100677.16;7408562;19;1698;-64
2022/05/17 11:48:20;;;;;;;;;;;;;;;21.38;70.80;100667.53;7409059;19;1809;-64
2022/05/17 11:50:57;;;;;;;;;;;;;;;21.36;70.82;100669.53;7407426;19;1857;-65
2022/05/17 11:53:35;;;;;;;;;;;;;;;21.35;70.50;100650.88;7408526;19;1492;-63
2022/05/17 11:56:14;;;;;;;;;;;;;;;21.46;70.28;100664.09;7408874;19;1331;-69
2022/05/17 11:58:43;;;;;;;;;;;;;;;21.42;70.27;100658.16;7408896;19;1572;-66
2022/05/17 12:01:26;;;;;;;;;;;;;;;21.47;70.31;100654.16;7407615;19;1443;-66
2022/05/17 12:03:57;;;;;;;;;;;;;;;21.47;70.33;100644.28;7407223;19;1302;-66
2022/05/17 12:06:38;;;;;;;;;;;;;;;21.50;70.34;100638.56;7409986;19;1357;-61
2022/05/17 12:09:08;;;;;;;;;;;;;;;21.56;70.10;100653.25;7409501;19;1377;-64
2022/05/17 12:11:43;;;;;;;;;;;;;;;21.46;69.71;100642.56;7405956;19;2218;-63
2022/05/17 12:14:20;;;;;;;;;;;;;;;21.47;69.68;100640.72;7409190;19;1608;-64
2022/05/17 12:16:50;;;;;;;;;;;;;;;21.48;69.01;100637.03;7408010;19;1251;-63
2022/05/17 12:19:27;;;;;;;;;;;;;;;21.47;69.70;100621.88;7407860;19;1645;-64
2022/05/17 12:22:00;;;;;;;;;;;;;;;21.51;70.07;100617.91;7409346;19;1623;-65
2022/05/17 12:24:35;;;;;;;;;;;;;;;21.59;69.70;100626.06;7407504;19;1829;-62
2022/05/17 12:27:12;;;;;;;;;;;;;;;21.45;70.23;100628.28;7407009;19;1519;-64
2022/05/17 12:32:25;;;;;;;;;;;;;;;21.40;70.69;100610.88;7406152;19;1849;-62
2022/05/17 12:34:57;;;;;;;;;;;;;;;21.40;70.52;100611.72;7407151;19;1341;-64
2022/05/17 12:37:27;;;;;;;;;;;;;;;21.39;70.47;100618.13;7405365;19;1500;-64
2022/05/17 12:45:19;;;;;;;;;;;;;;;21.34;70.66;100600.75;7404620;19;1554;-62
2022/05/17 12:47:50;;;;;;;;;;;;;;;21.38;70.64;100586.00;7408060;19;1542;-62
2022/05/17 12:50:22;;;;;;;;;;;;;;;21.51;70.29;100589.16;7407952;19;1857;-62
2022/05/17 12:52:55;;;;;;;;;;;;;;;21.58;70.05;100586.69;7406945;19;1472;-61
2022/05/17 12:55:25;;;;;;;;;;;;;;;21.50;70.43;100575.84;7405492;19;1369;-64
2022/05/17 12:57:53;;;;;;;;;;;;;;;21.49;69.92;100574.16;7407331;19;1607;-65
2022/05/17 13:00:26;;;;;;;;;;;;;;;21.50;70.47;100583.94;7406485;19;1674;-62
2022/05/17 13:02:58;;;;;;;;;;;;;;;21.44;70.27;100564.72;7404331;19;1698;-62
2022/05/17 13:05:30;;;;;;;;;;;;;;;21.42;70.41;100565.84;7406760;19;1423;-61
2022/05/17 13:08:06;;;;;;;;;;;;;;;21.39;70.31;100567.00;7406145;19;1317;-62
2022/05/17 13:10:35;;;;;;;;;;;;;;;21.45;70.31;100554.81;7407163;19;1870;-67
2022/05/17 13:13:14;;;;;;;;;;;;;;;21.47;70.24;100557.31;7408218;19;1369;-62
2022/05/17 13:15:45;;;;;;;;;;;;;;;21.44;70.39;100548.56;7407508;19;1436;-61
2022/05/17 13:18:13;;;;;;;;;;;;;;;21.47;70.20;100554.63;7406324;19;1663;-65
2022/05/17 13:20:48;;;;;;;;;;;;;;;21.48;70.26;100545.56;7405993;19;1535;-61
2022/05/17 13:23:17;;;;;;;;;;;;;;;21.55;70.24;100546.66;7406808;19;1388;-67
2022/05/17 13:25:47;;;;;;;;;;;;;;;21.53;70.61;100549.50;7405710;19;1605;-66
2022/05/17 13:28:26;;;;;;;;;;;;;;;21.50;70.78;100535.50;7406487;19;1261;-62
2022/05/17 13:31:03;;;;;;;;;;;;;;;21.52;70.74;100533.50;7405588;19;1859;-66
2022/05/17 13:33:33;;;;;;;;;;;;;;;21.50;70.68;100530.97;7405083;19;1322;-66
2022/05/17 13:36:09;;;;;;;;;;;;;;;21.48;70.74;100521.38;7407527;19;975;-62